createdAt,value
2022-09-29T00:00:37.019Z,7.91
2022-09-29T00:03:05.843Z,7.97
2022-09-29T00:05:33.796Z,8.02
2022-09-29T00:08:02.318Z,7.92
2022-09-29T00:10:30.299Z,7.92
2022-09-29T00:12:58.200Z,7.93
2022-09-29T00:15:26.115Z,7.92
2022-09-29T00:18:13.084Z,8.04
2022-09-29T00:20:41.517Z,7.90
2022-09-29T00:23:10.027Z,8.00
2022-09-29T00:25:37.960Z,7.96
2022-09-29T00:28:05.836Z,7.91
2022-09-29T00:30:33.959Z,7.96
2022-09-29T00:33:03.305Z,7.99
2022-09-29T00:35:32.536Z,8.07
2022-09-29T00:38:00.532Z,8.11
2022-09-29T00:40:28.434Z,7.97
2022-09-29T00:42:56.275Z,8.06
2022-09-29T00:45:24.727Z,8.08
2022-09-29T00:48:01.220Z,8.18
2022-09-29T00:50:40.617Z,8.13
2022-09-29T00:53:12.178Z,8.09
2022-09-29T00:55:43.468Z,8.14
2022-09-29T00:58:14.766Z,8.07
2022-09-29T01:00:43.856Z,8.01
2022-09-29T01:03:14.787Z,8.00
2022-09-29T01:08:44.975Z,8.08
2022-09-29T01:11:22.900Z,8.05
2022-09-29T01:20:20.907Z,8.02
2022-09-29T01:23:32.643Z,8.08
2022-09-29T01:26:49.154Z,8.00
2022-09-29T01:33:28.969Z,7.94
2022-09-29T01:36:17.528Z,7.82
2022-09-29T01:38:55.471Z,7.77
2022-09-29T01:41:29.903Z,7.69
2022-09-29T01:44:02.157Z,7.71
2022-09-29T01:46:32.595Z,7.68
2022-09-29T01:49:04.117Z,7.69
2022-09-29T01:51:36.830Z,7.74
2022-09-29T01:54:09.870Z,7.79
2022-09-29T01:56:38.189Z,7.87
2022-09-29T01:59:11.903Z,7.86
2022-09-29T02:01:42.430Z,7.91
2022-09-29T02:04:15.981Z,7.92
2022-09-29T02:06:48.996Z,7.90
2022-09-29T02:09:20.756Z,7.90
2022-09-29T02:11:50.887Z,7.94
2022-09-29T02:14:21.634Z,7.86
2022-09-29T02:16:50.893Z,7.88
2022-09-29T02:19:22.552Z,7.79
2022-09-29T02:21:54.244Z,7.83
2022-09-29T02:24:23.039Z,7.72
2022-09-29T02:26:51.473Z,7.69
2022-09-29T02:29:19.844Z,7.76
2022-09-29T02:31:48.384Z,7.66
2022-09-29T02:34:18.595Z,7.65
2022-09-29T02:36:55.884Z,7.63
2022-09-29T02:39:31.217Z,7.63
2022-09-29T02:42:07.443Z,7.52
2022-09-29T02:44:45.865Z,7.57
2022-09-29T02:47:27.128Z,7.61
2022-09-29T02:50:06.778Z,7.60
2022-09-29T02:52:46.121Z,7.50
2022-09-29T02:55:18.598Z,7.49
2022-09-29T02:57:51.493Z,7.47
2022-09-29T03:00:20.649Z,7.43
2022-09-29T03:02:48.765Z,7.38
2022-09-29T03:05:18.489Z,7.38
2022-09-29T03:07:47.816Z,7.38
2022-09-29T03:10:17.665Z,7.31
2022-09-29T03:12:46.647Z,7.24
2022-09-29T03:15:14.678Z,7.22
2022-09-29T03:17:42.590Z,7.28
2022-09-29T03:20:11.474Z,7.23
2022-09-29T03:22:39.331Z,7.13
2022-09-29T03:25:09.499Z,7.09
2022-09-29T03:27:38.449Z,7.10
2022-09-29T03:30:07.453Z,7.21
2022-09-29T03:32:35.336Z,7.17
2022-09-29T03:35:03.232Z,7.20
2022-09-29T03:37:31.091Z,7.22
2022-09-29T03:39:58.961Z,7.25
2022-09-29T03:42:28.490Z,7.25
2022-09-29T03:44:56.515Z,7.29
2022-09-29T03:47:24.362Z,7.25
2022-09-29T03:49:52.371Z,7.40
2022-09-29T03:52:20.412Z,7.29
2022-09-29T03:54:48.223Z,7.26
2022-09-29T03:57:16.076Z,7.25
2022-09-29T03:59:45.813Z,7.26
2022-09-29T04:02:14.161Z,7.23
2022-09-29T04:04:42.093Z,7.21
2022-09-29T04:07:09.988Z,7.11
2022-09-29T04:09:38.147Z,7.19
2022-09-29T04:12:06.241Z,7.23
2022-09-29T04:14:34.118Z,7.16
2022-09-29T04:17:03.406Z,7.10
2022-09-29T04:19:31.415Z,7.26
2022-09-29T04:21:59.242Z,7.10
2022-09-29T04:24:27.236Z,7.04
2022-09-29T04:26:55.159Z,7.07
2022-09-29T04:29:23.070Z,6.93
2022-09-29T04:31:51.038Z,6.96
2022-09-29T04:34:20.622Z,6.96
2022-09-29T04:36:48.480Z,6.92
2022-09-29T04:39:16.392Z,6.91
2022-09-29T04:41:44.796Z,6.86
2022-09-29T04:44:12.684Z,6.78
2022-09-29T04:46:40.533Z,6.81
2022-09-29T04:49:08.649Z,6.81
2022-09-29T04:51:37.955Z,6.89
2022-09-29T04:54:06.102Z,6.84
2022-09-29T04:56:33.921Z,6.91
2022-09-29T04:59:02.023Z,6.84
2022-09-29T05:01:30.036Z,6.84
2022-09-29T05:03:58.291Z,6.79
2022-09-29T05:06:26.163Z,6.81
2022-09-29T05:08:55.382Z,6.86
2022-09-29T05:11:23.250Z,6.85
2022-09-29T05:13:51.478Z,6.82
2022-09-29T05:16:19.405Z,6.83
2022-09-29T05:18:47.376Z,6.90
2022-09-29T05:21:27.545Z,6.88
2022-09-29T05:23:57.907Z,6.89
2022-09-29T05:26:25.970Z,6.91
2022-09-29T05:28:53.875Z,6.91
2022-09-29T05:31:21.823Z,7.04
2022-09-29T05:33:49.787Z,7.06
2022-09-29T05:36:17.644Z,6.97
2022-09-29T05:38:45.486Z,7.09
2022-09-29T05:41:16.237Z,7.09
2022-09-29T05:43:44.192Z,7.15
2022-09-29T05:46:12.382Z,7.31
2022-09-29T05:48:40.586Z,7.32
2022-09-29T05:51:10.399Z,7.41
2022-09-29T05:53:38.449Z,7.38
2022-09-29T05:56:08.013Z,7.36
2022-09-29T05:58:37.675Z,7.36
2022-09-29T06:01:08.940Z,7.41
2022-09-29T06:03:37.740Z,7.52
2022-09-29T06:06:07.590Z,7.50
2022-09-29T06:08:37.578Z,7.68
2022-09-29T06:11:07.259Z,7.80
2022-09-29T06:13:38.440Z,8.01
2022-09-29T06:16:07.040Z,8.08
2022-09-29T06:18:35.157Z,8.22
2022-09-29T06:21:05.171Z,8.41
2022-09-29T06:23:33.607Z,8.54
2022-09-29T06:26:04.389Z,8.72
2022-09-29T06:28:32.998Z,8.83
2022-09-29T06:31:03.503Z,9.01
2022-09-29T06:33:32.775Z,9.19
2022-09-29T06:36:20.511Z,9.36
2022-09-29T06:38:48.861Z,9.37
2022-09-29T06:41:16.705Z,9.59
2022-09-29T06:43:44.578Z,9.55
2022-09-29T06:46:16.386Z,9.57
2022-09-29T06:48:44.687Z,9.77
2022-09-29T06:51:13.638Z,9.70
2022-09-29T06:53:41.836Z,9.81
2022-09-29T06:56:10.639Z,9.72
2022-09-29T06:58:39.460Z,9.87
2022-09-29T07:01:07.744Z,9.94
2022-09-29T07:03:37.107Z,9.85
2022-09-29T07:06:19.356Z,9.87
2022-09-29T07:08:48.042Z,10.08
2022-09-29T07:11:16.631Z,10.20
2022-09-29T07:13:44.520Z,10.32
2022-09-29T07:16:14.380Z,10.35
2022-09-29T07:18:44.785Z,10.35
2022-09-29T07:21:16.736Z,10.54
2022-09-29T07:23:45.004Z,10.51
2022-09-29T07:26:13.325Z,10.71
2022-09-29T07:28:41.298Z,10.63
2022-09-29T07:31:14.884Z,10.80
2022-09-29T07:33:45.529Z,10.67
2022-09-29T07:36:14.287Z,10.85
2022-09-29T07:38:42.647Z,10.74
2022-09-29T07:41:11.818Z,10.87
2022-09-29T07:43:40.195Z,10.81
2022-09-29T07:46:08.410Z,10.90
2022-09-29T07:48:37.620Z,11.09
2022-09-29T07:51:08.600Z,11.10
2022-09-29T07:53:37.308Z,11.19
2022-09-29T07:56:06.552Z,11.32
2022-09-29T07:58:35.112Z,11.29
2022-09-29T08:01:05.494Z,11.42
2022-09-29T08:03:33.458Z,11.05
2022-09-29T08:06:01.352Z,11.15
2022-09-29T08:08:30.622Z,11.19
2022-09-29T08:11:05.981Z,11.35
2022-09-29T08:13:36.241Z,11.40
2022-09-29T08:16:07.085Z,11.35
2022-09-29T08:18:36.367Z,11.29
2022-09-29T08:21:05.191Z,11.38
2022-09-29T08:23:36.797Z,11.70
2022-09-29T08:26:06.051Z,11.74
2022-09-29T08:28:35.440Z,11.85
2022-09-29T08:31:04.610Z,12.10
2022-09-29T08:33:33.525Z,12.11
2022-09-29T08:36:03.737Z,12.19
2022-09-29T08:38:32.562Z,12.02
2022-09-29T08:41:05.049Z,12.13
2022-09-29T08:43:35.609Z,12.32
2022-09-29T08:46:08.144Z,12.50
2022-09-29T08:48:50.888Z,12.55
2022-09-29T08:51:38.912Z,12.41
2022-09-29T08:54:19.834Z,12.59
2022-09-29T08:56:52.336Z,12.67
2022-09-29T08:59:20.935Z,12.56
2022-09-29T09:01:58.887Z,12.43
2022-09-29T09:04:37.286Z,12.19
2022-09-29T09:07:12.234Z,12.39
2022-09-29T09:09:53.413Z,12.50
2022-09-29T09:12:38.240Z,12.65
2022-09-29T09:15:20.221Z,12.64
2022-09-29T09:18:15.982Z,12.85
2022-09-29T09:20:46.601Z,12.73
2022-09-29T09:23:21.683Z,12.98
2022-09-29T09:25:52.352Z,13.10
2022-09-29T09:28:24.236Z,13.20
2022-09-29T09:30:56.346Z,12.96
2022-09-29T09:33:31.705Z,13.03
2022-09-29T09:36:03.669Z,13.41
2022-09-29T09:38:42.933Z,13.79
2022-09-29T09:41:11.477Z,13.54
2022-09-29T09:43:43.895Z,13.75
2022-09-29T09:46:19.638Z,13.96
2022-09-29T09:48:55.291Z,13.81
2022-09-29T09:51:33.754Z,14.33
2022-09-29T09:54:05.218Z,14.12
2022-09-29T09:56:47.323Z,14.07
2022-09-29T09:59:31.071Z,14.72
2022-09-29T10:01:59.384Z,14.76
2022-09-29T10:04:27.473Z,14.85
2022-09-29T10:06:56.604Z,14.55
2022-09-29T10:09:24.589Z,14.39
2022-09-29T10:11:52.444Z,14.09
2022-09-29T10:14:24.035Z,13.87
2022-09-29T10:16:54.699Z,13.92
2022-09-29T10:19:23.942Z,14.22
2022-09-29T10:21:51.777Z,13.96
2022-09-29T10:24:24.991Z,14.08
2022-09-29T10:26:55.290Z,14.15
2022-09-29T10:29:30.981Z,14.49
2022-09-29T10:32:01.453Z,14.44
2022-09-29T10:34:29.699Z,14.86
2022-09-29T10:36:59.005Z,15.02
2022-09-29T10:39:35.123Z,15.22
2022-09-29T10:42:06.006Z,15.47
2022-09-29T10:44:35.515Z,15.83
2022-09-29T10:47:09.052Z,15.12
2022-09-29T10:49:37.055Z,14.50
2022-09-29T10:52:06.761Z,14.88
2022-09-29T10:54:38.116Z,15.20
2022-09-29T10:57:16.524Z,15.72
2022-09-29T10:59:49.892Z,15.23
2022-09-29T11:02:23.211Z,14.83
2022-09-29T11:04:51.913Z,14.46
2022-09-29T11:07:19.922Z,14.46
2022-09-29T11:09:48.098Z,14.22
2022-09-29T11:12:34.022Z,14.07
2022-09-29T11:15:09.197Z,14.17
2022-09-29T11:17:39.584Z,14.12
2022-09-29T11:20:14.629Z,14.03
2022-09-29T11:23:10.883Z,14.34
2022-09-29T11:26:14.354Z,14.55
2022-09-29T11:28:52.775Z,14.60
2022-09-29T11:31:34.187Z,14.94
2022-09-29T11:34:15.728Z,15.15
2022-09-29T11:36:48.488Z,14.68
2022-09-29T11:39:20.188Z,14.51
2022-09-29T11:41:59.125Z,14.45
2022-09-29T11:44:38.643Z,14.45
2022-09-29T11:47:17.620Z,14.29
2022-09-29T11:50:14.733Z,14.09
2022-09-29T11:53:04.601Z,14.30
2022-09-29T11:55:54.249Z,14.28
2022-09-29T11:58:33.045Z,14.02
2022-09-29T12:01:14.419Z,14.11
2022-09-29T12:03:47.664Z,14.01
2022-09-29T12:06:33.171Z,13.92
2022-09-29T12:09:14.996Z,13.92
2022-09-29T12:12:11.627Z,13.95
2022-09-29T12:14:46.497Z,13.93
2022-09-29T12:17:16.170Z,13.89
2022-09-29T12:19:46.392Z,13.75
2022-09-29T12:22:18.763Z,13.94
2022-09-29T12:24:48.907Z,13.93
2022-09-29T12:27:20.320Z,13.98
2022-09-29T12:29:52.052Z,14.08
2022-09-29T12:32:24.763Z,13.89
2022-09-29T12:34:57.127Z,14.08
2022-09-29T12:37:28.254Z,14.01
2022-09-29T12:40:02.197Z,14.31
2022-09-29T12:42:50.588Z,14.53
2022-09-29T12:45:23.548Z,14.66
2022-09-29T12:47:53.551Z,14.49
2022-09-29T12:50:27.808Z,14.44
2022-09-29T12:52:58.361Z,14.12
2022-09-29T12:55:31.155Z,13.29
2022-09-29T12:58:02.642Z,12.90
2022-09-29T13:00:32.758Z,12.69
2022-09-29T13:03:29.549Z,12.31
2022-09-29T13:06:24.450Z,12.33
2022-09-29T13:09:17.897Z,12.30
2022-09-29T13:12:12.429Z,12.39
2022-09-29T13:15:01.970Z,12.87
2022-09-29T13:17:47.096Z,12.96
2022-09-29T13:20:37.070Z,13.06
2022-09-29T13:23:24.894Z,13.29
2022-09-29T13:26:13.390Z,13.16
2022-09-29T13:28:43.637Z,13.78
2022-09-29T13:31:14.336Z,14.11
2022-09-29T13:33:42.550Z,14.65
2022-09-29T13:36:10.415Z,15.95
2022-09-29T13:38:41.059Z,16.90
2022-09-29T13:41:17.204Z,16.54
2022-09-29T13:44:06.946Z,16.44
2022-09-29T13:46:40.231Z,16.85
2022-09-29T13:49:25.467Z,17.19
2022-09-29T13:51:54.456Z,17.71
2022-09-29T13:54:44.798Z,18.93
2022-09-29T13:57:27.215Z,19.36
2022-09-29T14:00:18.595Z,19.07
2022-09-29T14:02:52.092Z,20.34
2022-09-29T14:05:41.193Z,18.97
2022-09-29T14:08:19.412Z,19.20
2022-09-29T14:10:52.001Z,18.10
2022-09-29T14:13:25.703Z,17.73
2022-09-29T14:16:12.027Z,16.98
2022-09-29T14:18:43.302Z,17.25
2022-09-29T14:21:14.102Z,16.67
2022-09-29T14:23:51.588Z,16.77
2022-09-29T14:26:46.990Z,16.16
2022-09-29T14:29:19.317Z,16.01
2022-09-29T14:31:51.459Z,15.86
2022-09-29T14:34:20.636Z,16.62
2022-09-29T14:36:49.553Z,17.40
2022-09-29T14:39:32.984Z,16.47
2022-09-29T14:42:02.222Z,15.74
2022-09-29T14:44:51.538Z,15.39
2022-09-29T14:51:07.878Z,14.94
2022-09-29T14:53:56.770Z,14.71
2022-09-29T14:56:37.399Z,15.38
2022-09-29T14:59:17.769Z,16.88
2022-09-29T15:02:08.037Z,18.30
2022-09-29T15:04:39.282Z,17.69
2022-09-29T15:07:12.231Z,16.79
2022-09-29T15:09:40.928Z,16.40
2022-09-29T15:12:15.526Z,16.12
2022-09-29T15:14:44.787Z,15.68
2022-09-29T15:17:19.772Z,15.43
2022-09-29T15:19:55.825Z,15.42
2022-09-29T15:22:53.754Z,15.02
2022-09-29T15:25:29.443Z,14.97
2022-09-29T15:28:00.871Z,14.67
2022-09-29T15:30:31.474Z,14.59
2022-09-29T15:33:16.212Z,14.42
2022-09-29T15:35:45.687Z,14.19
2022-09-29T15:38:21.727Z,14.18
2022-09-29T15:40:54.797Z,14.24
2022-09-29T15:43:23.290Z,14.06
2022-09-29T15:46:00.317Z,13.98
2022-09-29T15:48:29.264Z,13.97
2022-09-29T15:50:58.260Z,13.77
2022-09-29T15:53:27.501Z,13.85
2022-09-29T15:55:56.300Z,13.67
2022-09-29T15:58:41.695Z,13.68
2022-09-29T16:01:13.262Z,13.60
2022-09-29T16:03:44.963Z,13.55
2022-09-29T16:06:22.524Z,13.39
2022-09-29T16:08:55.290Z,13.28
2022-09-29T16:11:26.276Z,13.21
2022-09-29T16:13:59.342Z,13.15
2022-09-29T16:16:35.353Z,13.04
2022-09-29T16:19:07.406Z,12.96
2022-09-29T16:21:37.682Z,12.93
2022-09-29T16:24:09.434Z,12.93
2022-09-29T16:26:38.452Z,12.94
2022-09-29T16:29:24.410Z,12.87
2022-09-29T16:31:53.955Z,12.84
2022-09-29T16:34:28.472Z,12.70
2022-09-29T16:36:57.536Z,12.67
2022-09-29T16:39:26.798Z,12.60
2022-09-29T16:41:56.041Z,12.53
2022-09-29T16:44:29.502Z,12.58
2022-09-29T16:47:00.814Z,12.51
2022-09-29T16:49:30.014Z,12.45
2022-09-29T16:51:59.627Z,12.44
2022-09-29T16:54:29.472Z,12.39
2022-09-29T16:57:18.152Z,12.36
2022-09-29T16:59:46.479Z,12.32
2022-09-29T17:02:15.833Z,12.47
2022-09-29T17:04:43.793Z,12.26
2022-09-29T17:07:15.822Z,12.23
2022-09-29T17:09:47.946Z,12.13
2022-09-29T17:12:17.554Z,12.08
2022-09-29T17:14:47.770Z,12.05
2022-09-29T17:17:19.476Z,12.01
2022-09-29T17:19:47.373Z,11.99
2022-09-29T17:22:30.415Z,11.88
2022-09-29T17:24:59.022Z,11.83
2022-09-29T17:27:45.261Z,11.80
2022-09-29T17:30:17.609Z,11.71
2022-09-29T17:32:47.142Z,11.66
2022-09-29T17:35:15.327Z,11.60
2022-09-29T17:37:44.081Z,11.56
2022-09-29T17:40:21.086Z,11.49
2022-09-29T17:42:49.187Z,11.44
2022-09-29T17:45:17.950Z,11.49
2022-09-29T17:47:48.507Z,11.48
2022-09-29T17:50:23.741Z,11.51
2022-09-29T17:52:51.668Z,11.55
2022-09-29T17:55:22.802Z,11.49
2022-09-29T17:57:52.206Z,11.58
2022-09-29T18:00:22.304Z,11.59
2022-09-29T18:02:52.380Z,11.57
2022-09-29T18:05:23.631Z,11.60
2022-09-29T18:07:51.854Z,11.54
2022-09-29T18:10:22.605Z,11.48
2022-09-29T18:12:50.788Z,11.42
2022-09-29T18:15:18.658Z,11.35
2022-09-29T18:17:47.023Z,11.38
2022-09-29T18:20:18.891Z,11.37
2022-09-29T18:22:48.054Z,11.37
2022-09-29T18:25:17.709Z,11.33
2022-09-29T18:27:46.270Z,11.37
2022-09-29T18:30:20.383Z,11.37
2022-09-29T18:32:50.169Z,11.28
2022-09-29T18:35:21.281Z,11.26
2022-09-29T18:37:49.626Z,11.26
2022-09-29T18:40:18.302Z,11.18
2022-09-29T18:42:49.234Z,11.15
2022-09-29T18:45:22.817Z,11.07
2022-09-29T18:47:51.418Z,11.04
2022-09-29T18:50:22.261Z,11.02
2022-09-29T18:52:51.393Z,11.01
2022-09-29T18:55:23.105Z,11.09
2022-09-29T18:57:51.437Z,11.14
2022-09-29T19:00:21.465Z,11.06
2022-09-29T19:02:49.823Z,11.00
2022-09-29T19:05:21.388Z,11.06
2022-09-29T19:07:52.694Z,11.04
2022-09-29T19:10:22.843Z,11.00
2022-09-29T19:12:50.994Z,11.00
2022-09-29T19:15:20.290Z,11.03
2022-09-29T19:17:48.975Z,11.04
2022-09-29T19:20:18.582Z,11.01
2022-09-29T19:22:47.801Z,11.00
2022-09-29T19:25:17.106Z,11.08
2022-09-29T19:27:45.514Z,11.03
2022-09-29T19:30:15.931Z,10.99
2022-09-29T19:32:44.417Z,10.99
2022-09-29T19:35:15.747Z,11.04
2022-09-29T19:37:43.773Z,11.08
2022-09-29T19:40:16.778Z,11.10
2022-09-29T19:42:44.513Z,11.11
2022-09-29T19:45:12.622Z,10.99
2022-09-29T19:47:40.479Z,11.02
2022-09-29T19:50:26.574Z,10.99
2022-09-29T19:52:54.978Z,10.95
2022-09-29T19:55:24.650Z,11.02
2022-09-29T19:57:52.482Z,10.98
2022-09-29T20:00:22.269Z,11.01
2022-09-29T20:02:52.487Z,11.01
2022-09-29T20:05:20.612Z,11.01
2022-09-29T20:07:48.696Z,11.02
2022-09-29T20:10:17.553Z,10.96
2022-09-29T20:12:47.395Z,10.94
2022-09-29T20:15:15.407Z,11.02
2022-09-29T20:17:44.189Z,11.07
2022-09-29T20:20:13.008Z,11.00
2022-09-29T20:22:40.995Z,10.82
2022-09-29T20:25:10.028Z,10.85
2022-09-29T20:27:38.063Z,10.85
2022-09-29T20:30:08.841Z,10.86
2022-09-29T20:32:36.868Z,10.71
2022-09-29T20:35:05.407Z,10.85
2022-09-29T20:37:33.334Z,10.83
2022-09-29T20:40:01.281Z,10.76
2022-09-29T20:42:29.726Z,10.65
2022-09-29T20:44:57.634Z,10.69
2022-09-29T20:47:27.541Z,10.70
2022-09-29T20:49:56.404Z,10.63
2022-09-29T20:52:24.411Z,10.60
2022-09-29T20:54:52.379Z,10.66
2022-09-29T20:57:20.277Z,10.66
2022-09-29T20:59:48.303Z,10.61
2022-09-29T21:02:16.336Z,10.53
2022-09-29T21:04:45.732Z,10.53
2022-09-29T21:07:27.563Z,10.47
2022-09-29T21:09:55.520Z,10.51
2022-09-29T21:12:23.499Z,10.45
2022-09-29T21:14:51.382Z,10.40
2022-09-29T21:17:19.340Z,10.37
2022-09-29T21:19:48.719Z,10.35
2022-09-29T21:22:16.638Z,10.43
2022-09-29T21:24:44.663Z,10.39
2022-09-29T21:27:12.636Z,10.35
2022-09-29T21:29:40.596Z,10.28
2022-09-29T21:32:08.544Z,10.23
2022-09-29T21:34:36.456Z,10.15
2022-09-29T21:37:05.752Z,10.20
2022-09-29T21:39:33.695Z,10.15
2022-09-29T21:42:01.610Z,10.07
2022-09-29T21:44:29.512Z,10.04
2022-09-29T21:46:57.631Z,10.10
2022-09-29T21:49:25.588Z,10.04
2022-09-29T21:51:54.098Z,10.07
2022-09-29T21:54:25.082Z,10.03
2022-09-29T21:56:53.817Z,9.98
2022-09-29T21:59:23.009Z,10.07
2022-09-29T22:01:52.223Z,10.02
2022-09-29T22:04:21.175Z,9.96
2022-09-29T22:06:49.300Z,9.98
2022-09-29T22:09:19.514Z,9.96
2022-09-29T22:11:49.901Z,9.93
2022-09-29T22:14:18.711Z,9.90
2022-09-29T22:16:46.919Z,9.89
2022-09-29T22:19:23.793Z,9.84
2022-09-29T22:21:52.501Z,9.86
2022-09-29T22:24:20.359Z,9.89
2022-09-29T22:26:49.519Z,9.87
2022-09-29T22:29:17.343Z,9.84
2022-09-29T22:31:45.781Z,9.80
2022-09-29T22:34:13.718Z,9.77
2022-09-29T22:36:41.529Z,9.80
2022-09-29T22:39:09.330Z,9.77
2022-09-29T22:41:39.732Z,9.80
2022-09-29T22:44:09.230Z,9.76
2022-09-29T22:46:37.334Z,9.71
2022-09-29T22:49:05.508Z,9.74
2022-09-29T22:51:33.383Z,9.65
2022-09-29T22:54:01.254Z,9.61
2022-09-29T22:56:29.375Z,9.60
2022-09-29T22:59:00.929Z,9.60
2022-09-29T23:01:30.168Z,9.60
2022-09-29T23:03:58.100Z,9.58
2022-09-29T23:06:26.322Z,9.63
2022-09-29T23:08:55.363Z,9.68
2022-09-29T23:11:23.326Z,9.67
2022-09-29T23:13:51.212Z,9.69
2022-09-29T23:16:19.157Z,9.65
2022-09-29T23:18:52.927Z,9.77
2022-09-29T23:21:20.839Z,9.78
2022-09-29T23:23:49.075Z,9.73
2022-09-29T23:26:17.013Z,9.62
2022-09-29T23:28:44.834Z,9.57
2022-09-29T23:31:12.974Z,9.60
2022-09-29T23:33:41.133Z,9.60
2022-09-29T23:36:12.543Z,9.61
2022-09-29T23:38:59.275Z,9.67
2022-09-29T23:41:29.706Z,9.68
2022-09-29T23:43:59.117Z,9.68
2022-09-29T23:46:30.066Z,9.73
2022-09-29T23:48:58.443Z,9.76
2022-09-29T23:51:28.113Z,9.81
2022-09-29T23:53:56.047Z,9.91
2022-09-29T23:56:23.923Z,9.87
2022-09-29T23:58:51.881Z,9.93
